createdAt,value
2022-08-05T00:02:19.883Z,35.40
2022-08-05T00:04:47.472Z,35.30
2022-08-05T00:07:27.317Z,35.50
2022-08-05T00:10:09.635Z,35.80
2022-08-05T00:12:55.895Z,35.70
2022-08-05T00:15:57.898Z,35.60
2022-08-05T00:18:21.699Z,35.80
2022-08-05T00:20:50.101Z,35.70
2022-08-05T00:23:17.020Z,35.90
2022-08-05T00:25:45.738Z,36.00
2022-08-05T00:28:13.367Z,36.10
2022-08-05T00:30:41.189Z,36.30
2022-08-05T00:34:42.302Z,36.40
2022-08-05T00:36:16.473Z,37.10
2022-08-05T00:38:44.565Z,37.50
2022-08-05T00:41:12.041Z,37.80
2022-08-05T00:43:47.023Z,37.90
2022-08-05T00:46:16.286Z,38.10
2022-08-05T00:48:50.579Z,38.40
2022-08-05T00:51:51.553Z,38.70
2022-08-05T00:54:06.513Z,38.90
2022-08-05T00:56:33.291Z,39.20
2022-08-05T00:59:00.170Z,39.50
2022-08-05T01:01:48.064Z,39.60
2022-08-05T01:04:15.966Z,39.90
2022-08-05T01:06:49.060Z,39.90
2022-08-05T01:09:20.180Z,40.30
2022-08-05T01:11:49.995Z,40.80
2022-08-05T01:14:27.926Z,41.40
2022-08-05T01:17:05.479Z,41.80
2022-08-05T01:20:01.204Z,41.90
2022-08-05T01:22:57.229Z,42.40
2022-08-05T01:25:53.185Z,43.10
2022-08-05T01:28:27.988Z,44.40
2022-08-05T01:31:21.118Z,44.70
2022-08-05T01:33:57.199Z,45.40
2022-08-05T01:36:28.799Z,46.10
2022-08-05T01:38:56.387Z,46.30
2022-08-05T01:41:29.110Z,46.50
2022-08-05T01:43:56.813Z,47.30
2022-08-05T01:46:42.002Z,48.30
2022-08-05T01:49:23.246Z,49.00
2022-08-05T01:51:58.245Z,49.30
2022-08-05T01:54:45.881Z,49.50
2022-08-05T01:58:10.129Z,49.00
2022-08-05T02:00:02.666Z,49.70
2022-08-05T02:02:31.974Z,50.20
2022-08-05T02:05:04.170Z,50.10
2022-08-05T02:07:38.838Z,50.10
2022-08-05T02:10:07.941Z,50.30
2022-08-05T02:12:43.441Z,49.90
2022-08-05T02:15:33.296Z,50.00
2022-08-05T02:18:32.485Z,50.30
2022-08-05T02:21:03.719Z,50.40
2022-08-05T02:23:35.710Z,50.70
2022-08-05T02:26:05.425Z,50.80
2022-08-05T02:28:41.453Z,51.70
2022-08-05T02:31:16.581Z,51.40
2022-08-05T02:33:57.473Z,51.60
2022-08-05T02:36:27.228Z,51.20
2022-08-05T02:38:56.118Z,52.00
2022-08-05T02:41:28.826Z,52.10
2022-08-05T02:44:13.131Z,52.20
2022-08-05T02:46:43.851Z,52.60
2022-08-05T02:49:21.770Z,53.10
2022-08-05T02:52:02.756Z,52.80
2022-08-05T02:54:36.018Z,52.80
2022-08-05T02:57:10.145Z,53.50
2022-08-05T02:59:54.690Z,53.10
2022-08-05T03:02:27.649Z,53.20
2022-08-05T03:04:55.435Z,53.10
2022-08-05T03:07:59.322Z,53.50
2022-08-05T03:10:10.178Z,53.20
2022-08-05T03:12:38.124Z,53.20
2022-08-05T03:15:06.866Z,52.90
2022-08-05T03:17:34.405Z,52.50
2022-08-05T03:20:08.859Z,52.70
2022-08-05T03:22:36.934Z,51.80
2022-08-05T03:25:31.954Z,51.80
2022-08-05T03:28:00.187Z,52.00
2022-08-05T03:30:33.738Z,51.60
2022-08-05T03:33:05.832Z,51.50
2022-08-05T03:35:33.998Z,51.30
2022-08-05T03:38:07.450Z,51.10
2022-08-05T03:40:34.433Z,51.00
2022-08-05T03:43:59.067Z,51.00
2022-08-05T03:45:57.970Z,51.00
2022-08-05T03:48:29.758Z,50.90
2022-08-05T03:52:48.835Z,51.00
2022-08-05T03:55:52.346Z,51.30
2022-08-05T03:57:16.619Z,51.10
2022-08-05T03:59:54.470Z,50.90
2022-08-05T04:02:38.390Z,51.60
2022-08-05T04:05:08.293Z,51.80
2022-08-05T04:07:53.063Z,52.20
2022-08-05T04:10:30.920Z,52.60
2022-08-05T04:13:04.579Z,53.40
2022-08-05T04:15:33.205Z,53.30
2022-08-05T04:18:07.034Z,53.70
2022-08-05T04:20:34.631Z,54.00
2022-08-05T04:23:01.688Z,54.30
2022-08-05T04:25:57.853Z,54.90
2022-08-05T04:28:15.502Z,54.80
2022-08-05T04:30:44.406Z,55.10
2022-08-05T04:33:12.340Z,55.00
2022-08-05T04:36:16.716Z,55.10
2022-08-05T04:38:39.471Z,55.10
2022-08-05T04:41:07.529Z,55.50
2022-08-05T04:43:37.101Z,55.60
2022-08-05T04:46:05.048Z,55.60
2022-08-05T04:48:32.248Z,56.10
2022-08-05T04:51:01.579Z,56.50
2022-08-05T04:53:33.663Z,57.50
2022-08-05T04:56:33.934Z,59.90
2022-08-05T04:58:49.632Z,62.40
2022-08-05T05:02:06.396Z,65.10
2022-08-05T05:04:03.751Z,66.20
2022-08-05T05:06:40.468Z,67.10
2022-08-05T05:09:14.032Z,67.70
2022-08-05T05:11:54.642Z,68.20
2022-08-05T05:14:27.799Z,69.30
2022-08-05T05:17:01.785Z,69.70
2022-08-05T05:19:36.908Z,69.30
2022-08-05T05:22:24.219Z,70.10
2022-08-05T05:24:57.410Z,69.90
2022-08-05T05:27:45.797Z,70.90
2022-08-05T05:30:29.664Z,70.70
2022-08-05T05:33:00.702Z,71.40
2022-08-05T05:35:34.145Z,71.30
2022-08-05T05:38:03.091Z,70.80
2022-08-05T05:40:34.377Z,71.20
2022-08-05T05:43:02.099Z,70.70
2022-08-05T05:45:29.079Z,70.20
2022-08-05T05:48:07.140Z,70.30
2022-08-05T05:50:41.158Z,70.20
2022-08-05T05:53:21.435Z,69.80
2022-08-05T05:55:51.423Z,69.20
2022-08-05T05:58:31.413Z,68.80
2022-08-05T06:01:12.415Z,68.60
2022-08-05T06:04:01.305Z,68.90
2022-08-05T06:06:27.802Z,69.20
2022-08-05T06:08:57.413Z,69.80
2022-08-05T06:11:24.317Z,70.60
2022-08-05T06:13:53.981Z,70.30
2022-08-05T06:16:30.901Z,70.70
2022-08-05T06:19:01.817Z,70.30
2022-08-05T06:21:36.523Z,70.10
2022-08-05T06:24:11.721Z,71.30
2022-08-05T06:26:51.600Z,71.80
2022-08-05T06:29:25.208Z,72.00
2022-08-05T06:32:21.081Z,72.40
2022-08-05T06:34:48.464Z,72.50
2022-08-05T06:37:56.424Z,71.90
2022-08-05T06:40:07.917Z,71.60
2022-08-05T06:42:34.645Z,71.30
2022-08-05T06:45:05.598Z,71.40
2022-08-05T06:48:36.440Z,71.10
2022-08-05T06:50:21.632Z,70.20
2022-08-05T06:52:58.748Z,69.90
2022-08-05T06:55:36.482Z,69.50
2022-08-05T06:58:29.617Z,69.10
2022-08-05T07:00:51.051Z,68.60
2022-08-05T07:03:18.328Z,68.50
2022-08-05T07:05:46.494Z,68.10
2022-08-05T07:08:13.627Z,69.10
2022-08-05T07:10:53.404Z,68.30
2022-08-05T07:13:57.568Z,68.00
2022-08-05T07:18:07.104Z,67.20
2022-08-05T07:22:28.405Z,66.40
2022-08-05T07:25:22.752Z,66.40
2022-08-05T07:27:58.341Z,66.60
2022-08-05T07:30:34.447Z,66.70
2022-08-05T07:33:05.309Z,66.00
2022-08-05T07:36:02.439Z,65.20
2022-08-05T07:38:33.640Z,64.70
2022-08-05T07:42:06.831Z,64.30
2022-08-05T07:43:58.319Z,63.70
2022-08-05T07:46:30.594Z,62.80
2022-08-05T07:49:02.217Z,62.80
2022-08-05T07:51:37.452Z,61.60
2022-08-05T07:54:15.737Z,60.90
2022-08-05T07:57:01.913Z,60.40
2022-08-05T07:59:38.094Z,60.80
2022-08-05T08:02:15.656Z,60.00
2022-08-05T08:04:48.558Z,59.20
2022-08-05T08:07:22.803Z,58.80
2022-08-05T08:09:52.093Z,58.60
2022-08-05T08:12:35.082Z,58.60
2022-08-05T08:15:13.848Z,58.70
2022-08-05T08:17:50.827Z,58.80
2022-08-05T08:21:01.011Z,59.10
2022-08-05T08:23:11.696Z,59.20
2022-08-05T08:25:59.679Z,59.10
2022-08-05T08:28:36.530Z,59.10
2022-08-05T08:31:05.299Z,58.90
2022-08-05T08:33:35.880Z,58.70
2022-08-05T08:36:38.761Z,58.20
2022-08-05T08:38:55.555Z,57.60
2022-08-05T08:41:26.361Z,57.40
2022-08-05T08:45:20.314Z,56.70
2022-08-05T08:46:59.094Z,56.50
2022-08-05T08:50:05.891Z,56.70
2022-08-05T08:52:18.061Z,56.40
2022-08-05T08:54:45.173Z,55.20
2022-08-05T08:57:13.522Z,55.00
2022-08-05T08:59:41.842Z,54.90
2022-08-05T09:02:14.769Z,54.70
2022-08-05T09:04:47.703Z,54.40
2022-08-05T09:07:40.135Z,54.50
2022-08-05T09:10:18.998Z,54.00
2022-08-05T09:12:45.731Z,54.40
2022-08-05T09:15:17.902Z,54.00
2022-08-05T09:17:49.706Z,52.70
2022-08-05T09:20:36.493Z,52.60
2022-08-05T09:23:19.612Z,52.90
2022-08-05T09:26:01.346Z,51.70
2022-08-05T09:28:33.602Z,51.80
2022-08-05T09:31:23.283Z,51.70
2022-08-05T09:34:04.512Z,51.30
2022-08-05T09:36:56.185Z,51.00
2022-08-05T09:39:27.600Z,50.90
2022-08-05T09:42:08.796Z,51.40
2022-08-05T09:44:49.336Z,50.80
2022-08-05T09:47:21.013Z,50.40
2022-08-05T09:50:02.452Z,50.20
2022-08-05T09:52:31.362Z,50.30
2022-08-05T09:55:00.047Z,50.30
2022-08-05T09:57:43.586Z,49.80
2022-08-05T10:00:21.368Z,50.60
2022-08-05T10:02:54.791Z,50.20
2022-08-05T10:05:29.248Z,50.40
2022-08-05T10:08:35.704Z,49.70
2022-08-05T10:10:54.122Z,49.20
2022-08-05T10:13:31.581Z,50.00
2022-08-05T10:16:34.078Z,49.70
2022-08-05T10:19:09.421Z,49.90
2022-08-05T10:21:40.355Z,49.20
2022-08-05T10:24:10.669Z,47.90
2022-08-05T10:26:51.193Z,47.60
2022-08-05T10:30:05.734Z,48.20
2022-08-05T10:32:53.219Z,47.90
2022-08-05T10:34:55.382Z,48.00
2022-08-05T10:37:22.489Z,47.40
2022-08-05T10:40:03.610Z,46.70
2022-08-05T10:42:45.044Z,46.60
2022-08-05T10:45:23.363Z,46.50
2022-08-05T10:48:31.376Z,46.10
2022-08-05T10:51:04.379Z,46.00
2022-08-05T10:53:38.212Z,46.50
2022-08-05T10:56:21.411Z,46.10
2022-08-05T10:58:55.299Z,45.90
2022-08-05T11:01:54.527Z,45.30
2022-08-05T11:04:26.385Z,45.40
2022-08-05T11:07:00.586Z,45.00
2022-08-05T11:09:45.323Z,44.60
2022-08-05T11:12:43.866Z,44.70
2022-08-05T11:15:21.967Z,44.80
2022-08-05T11:18:00.020Z,45.00
2022-08-05T11:20:37.482Z,44.80
2022-08-05T11:23:25.463Z,45.00
2022-08-05T11:26:09.961Z,44.60
2022-08-05T11:28:43.098Z,45.10
2022-08-05T11:31:10.219Z,45.00
2022-08-05T11:33:46.232Z,45.10
2022-08-05T11:36:34.191Z,44.90
2022-08-05T11:39:09.309Z,45.20
2022-08-05T11:42:01.648Z,44.90
2022-08-05T11:44:41.258Z,45.20
2022-08-05T11:47:17.368Z,45.00
2022-08-05T11:49:49.728Z,45.20
2022-08-05T11:52:29.412Z,45.10
2022-08-05T11:54:58.444Z,45.10
2022-08-05T11:58:08.315Z,45.00
2022-08-05T12:00:31.306Z,45.10
2022-08-05T12:02:58.107Z,44.60
2022-08-05T12:05:36.173Z,44.50
2022-08-05T12:08:09.560Z,44.30
2022-08-05T12:10:44.933Z,44.20
2022-08-05T12:13:18.914Z,44.50
2022-08-05T12:16:15.429Z,43.80
2022-08-05T12:18:49.414Z,43.20
2022-08-05T12:21:21.833Z,43.10
2022-08-05T12:24:08.317Z,43.00
2022-08-05T12:26:52.899Z,43.40
2022-08-05T12:29:26.654Z,43.50
2022-08-05T12:31:58.059Z,43.10
2022-08-05T12:34:35.635Z,43.20
2022-08-05T12:37:10.907Z,43.20
2022-08-05T12:39:43.957Z,43.20
2022-08-05T12:42:21.029Z,43.40
2022-08-05T12:44:48.608Z,43.20
2022-08-05T12:47:30.602Z,43.00
2022-08-05T12:50:04.430Z,43.60
2022-08-05T12:52:39.209Z,43.70
2022-08-05T12:55:25.156Z,43.40
2022-08-05T12:58:48.952Z,42.90
2022-08-05T13:01:59.784Z,42.90
2022-08-05T13:03:42.155Z,42.80
2022-08-05T13:06:17.362Z,42.90
2022-08-05T13:08:51.556Z,43.10
2022-08-05T13:12:01.920Z,43.40
2022-08-05T13:14:11.577Z,43.40
2022-08-05T13:16:46.991Z,43.80
2022-08-05T13:19:15.967Z,44.20
2022-08-05T13:21:52.282Z,44.20
2022-08-05T13:24:36.256Z,44.20
2022-08-05T13:27:11.081Z,44.60
2022-08-05T13:29:38.100Z,45.20
2022-08-05T13:32:05.558Z,44.70
2022-08-05T13:34:32.894Z,44.90
2022-08-05T13:37:00.457Z,45.20
2022-08-05T13:40:16.210Z,45.30
2022-08-05T13:42:15.287Z,45.20
2022-08-05T13:44:45.720Z,45.20
2022-08-05T13:47:34.557Z,45.40
2022-08-05T13:50:06.796Z,45.30
2022-08-05T13:52:36.476Z,45.10
2022-08-05T13:55:07.885Z,44.50
2022-08-05T13:57:50.573Z,44.60
2022-08-05T14:00:27.331Z,44.40
2022-08-05T14:03:01.171Z,44.60
2022-08-05T14:05:48.508Z,45.00
2022-08-05T14:08:20.833Z,45.60
2022-08-05T14:11:03.165Z,46.20
2022-08-05T14:13:41.471Z,46.40
2022-08-05T14:16:11.596Z,46.50
2022-08-05T14:18:43.260Z,46.60
2022-08-05T14:22:07.345Z,46.90
2022-08-05T14:23:56.962Z,47.30
2022-08-05T14:26:36.864Z,47.80
2022-08-05T14:29:06.377Z,48.30
2022-08-05T14:32:03.061Z,48.50
2022-08-05T14:34:30.146Z,48.70
2022-08-05T14:37:03.350Z,49.00
2022-08-05T14:39:31.207Z,49.30
2022-08-05T14:42:21.011Z,49.40
2022-08-05T14:44:49.019Z,49.60
2022-08-05T14:47:15.906Z,49.60
2022-08-05T14:49:58.493Z,49.80
2022-08-05T14:52:51.735Z,50.40
2022-08-05T14:55:15.615Z,51.00
2022-08-05T14:57:54.771Z,51.20
2022-08-05T15:00:28.042Z,51.50
2022-08-05T15:02:55.345Z,51.90
2022-08-05T15:05:22.234Z,52.30
2022-08-05T15:08:08.628Z,52.50
2022-08-05T15:10:43.363Z,52.90
2022-08-05T15:13:13.013Z,53.60
2022-08-05T15:15:54.867Z,53.70
2022-08-05T15:18:22.817Z,54.10
2022-08-05T15:20:49.799Z,54.30
2022-08-05T15:23:18.128Z,54.50
2022-08-05T15:25:52.088Z,55.00
2022-08-05T15:28:27.417Z,55.40
2022-08-05T15:30:55.174Z,55.60
2022-08-05T15:33:56.923Z,56.00
2022-08-05T15:36:16.919Z,56.10
2022-08-05T15:38:50.699Z,55.80
2022-08-05T15:41:58.045Z,55.90
2022-08-05T15:44:24.162Z,56.10
2022-08-05T15:46:52.690Z,55.90
2022-08-05T15:49:27.486Z,56.50
2022-08-05T15:52:16.946Z,55.80
2022-08-05T15:54:53.505Z,55.90
2022-08-05T15:57:23.489Z,56.10
2022-08-05T15:59:56.652Z,56.00
2022-08-05T16:02:25.581Z,55.70
2022-08-05T16:04:54.376Z,56.00
2022-08-05T16:07:23.867Z,56.20
2022-08-05T16:09:50.613Z,56.40
2022-08-05T16:12:20.895Z,56.50
2022-08-05T16:14:48.270Z,56.50
2022-08-05T16:17:15.706Z,56.60
2022-08-05T16:20:05.554Z,56.60
2022-08-05T16:22:34.261Z,56.80
2022-08-05T16:25:07.987Z,57.00
2022-08-05T16:28:00.116Z,57.00
2022-08-05T16:30:26.174Z,57.10
2022-08-05T16:32:54.583Z,57.30
2022-08-05T16:35:28.293Z,57.50
2022-08-05T16:38:02.603Z,57.30
2022-08-05T16:40:51.953Z,57.30
2022-08-05T16:43:24.035Z,57.30
2022-08-05T16:46:05.868Z,57.40
2022-08-05T16:48:35.865Z,57.50
2022-08-05T16:51:03.839Z,57.30
2022-08-05T16:54:03.947Z,57.30
2022-08-05T16:56:29.489Z,57.60
2022-08-05T16:58:57.215Z,57.90
2022-08-05T17:01:24.557Z,58.00
2022-08-05T17:03:52.030Z,58.20
2022-08-05T17:06:19.314Z,58.40
2022-08-05T17:08:53.513Z,58.80
2022-08-05T17:11:24.997Z,59.20
2022-08-05T17:14:00.237Z,59.60
2022-08-05T17:16:37.174Z,60.00
2022-08-05T17:19:09.657Z,60.70
2022-08-05T17:21:37.613Z,61.30
2022-08-05T17:24:20.478Z,62.40
2022-08-05T17:26:56.065Z,63.10
2022-08-05T17:29:33.988Z,63.90
2022-08-05T17:32:08.631Z,64.30
2022-08-05T17:34:38.853Z,64.70
2022-08-05T17:37:35.869Z,65.10
2022-08-05T17:39:55.783Z,65.60
2022-08-05T17:42:27.017Z,66.60
2022-08-05T17:44:57.018Z,66.50
2022-08-05T17:47:24.538Z,66.90
2022-08-05T17:50:03.957Z,67.30
2022-08-05T17:52:54.832Z,67.60
2022-08-05T17:55:22.806Z,68.10
2022-08-05T17:58:02.012Z,68.60
2022-08-05T18:00:29.613Z,69.10
2022-08-05T18:02:56.629Z,69.10
2022-08-05T18:05:24.053Z,69.40
2022-08-05T18:07:55.223Z,69.20
2022-08-05T18:10:23.819Z,69.50
2022-08-05T18:12:50.796Z,69.50
2022-08-05T18:15:17.574Z,69.40
2022-08-05T18:18:01.356Z,69.30
2022-08-05T18:20:31.960Z,69.00
2022-08-05T18:23:11.313Z,68.50
2022-08-05T18:25:44.751Z,68.50
2022-08-05T18:28:16.355Z,68.30
2022-08-05T18:30:51.115Z,67.80
2022-08-05T18:33:23.178Z,68.00
2022-08-05T18:36:05.206Z,68.10
2022-08-05T18:38:38.074Z,68.30
2022-08-05T18:41:55.476Z,68.10
2022-08-05T18:43:54.325Z,68.30
2022-08-05T18:46:21.081Z,68.00
2022-08-05T18:48:51.988Z,68.00
2022-08-05T18:52:05.933Z,67.80
2022-08-05T18:54:31.281Z,67.70
2022-08-05T18:57:02.081Z,67.50
2022-08-05T18:59:42.942Z,67.70
2022-08-05T19:02:27.153Z,67.60
2022-08-05T19:05:02.949Z,67.60
2022-08-05T19:07:46.258Z,67.60
2022-08-05T19:10:14.353Z,67.80
2022-08-05T19:12:41.539Z,67.70
2022-08-05T19:15:25.349Z,68.10
2022-08-05T19:18:08.611Z,68.60
2022-08-05T19:20:37.274Z,69.00
2022-08-05T19:23:08.722Z,69.50
2022-08-05T19:26:02.127Z,69.80
2022-08-05T19:28:34.656Z,69.90
2022-08-05T19:31:05.853Z,70.00
2022-08-05T19:33:36.810Z,70.60
2022-08-05T19:36:07.320Z,70.90
2022-08-05T19:38:36.303Z,71.20
2022-08-05T19:41:07.062Z,71.60
2022-08-05T19:44:06.700Z,71.70
2022-08-05T19:46:30.755Z,71.60
2022-08-05T19:49:04.957Z,72.00
2022-08-05T19:52:09.326Z,72.40
2022-08-05T19:54:26.714Z,72.90
2022-08-05T19:56:59.093Z,73.40
2022-08-05T19:59:54.891Z,74.00
2022-08-05T20:02:14.390Z,74.40
2022-08-05T20:04:43.123Z,74.40
2022-08-05T20:07:13.628Z,74.60
2022-08-05T20:09:54.503Z,74.70
2022-08-05T20:12:22.690Z,75.20
2022-08-05T20:14:52.400Z,75.20
2022-08-05T20:17:23.497Z,75.60
2022-08-05T20:19:56.596Z,75.80
2022-08-05T20:22:26.782Z,75.70
2022-08-05T20:24:54.826Z,76.10
2022-08-05T20:27:27.001Z,75.90
2022-08-05T20:29:58.263Z,75.90
2022-08-05T20:32:26.285Z,75.80
2022-08-05T20:34:53.332Z,76.10
2022-08-05T20:38:05.417Z,76.00
2022-08-05T20:40:07.609Z,76.20
2022-08-05T20:42:34.787Z,76.60
2022-08-05T20:45:02.824Z,76.90
2022-08-05T20:47:32.149Z,77.60
2022-08-05T20:49:59.830Z,77.20
2022-08-05T20:52:29.183Z,77.20
2022-08-05T20:55:54.246Z,77.50
2022-08-05T20:57:44.903Z,77.60
2022-08-05T21:00:34.846Z,77.70
2022-08-05T21:03:07.357Z,77.60
2022-08-05T21:05:47.556Z,77.60
2022-08-05T21:08:26.682Z,78.10
2022-08-05T21:11:00.162Z,78.50
2022-08-05T21:13:55.802Z,78.50
2022-08-05T21:16:14.073Z,78.70
2022-08-05T21:18:44.955Z,78.50
2022-08-05T21:21:12.140Z,78.70
2022-08-05T21:23:39.115Z,78.60
2022-08-05T21:26:12.256Z,78.40
2022-08-05T21:28:47.925Z,78.50
2022-08-05T21:31:18.303Z,78.60
2022-08-05T21:33:47.791Z,78.40
2022-08-05T21:36:19.201Z,78.50
2022-08-05T21:38:54.865Z,78.80
2022-08-05T21:41:21.710Z,78.80
2022-08-05T21:44:01.350Z,78.90
2022-08-05T21:46:34.863Z,78.90
2022-08-05T21:49:04.774Z,78.80
2022-08-05T21:52:22.260Z,78.80
2022-08-05T21:54:28.043Z,78.70
2022-08-05T21:57:29.522Z,78.60
2022-08-05T22:00:03.046Z,78.60
2022-08-05T22:02:31.830Z,78.40
2022-08-05T22:04:58.719Z,78.20
2022-08-05T22:07:54.198Z,78.00
2022-08-05T22:10:12.950Z,77.60
2022-08-05T22:12:45.095Z,77.50
2022-08-05T22:16:01.703Z,77.30
2022-08-05T22:18:05.265Z,77.00
2022-08-05T22:20:32.132Z,77.00
2022-08-05T22:23:21.297Z,77.00
2022-08-05T22:26:09.603Z,76.90
2022-08-05T22:28:38.576Z,76.60
2022-08-05T22:31:05.975Z,76.40
2022-08-05T22:33:57.025Z,76.20
2022-08-05T22:36:23.875Z,75.90
2022-08-05T22:38:51.370Z,75.90
2022-08-05T22:41:25.989Z,75.80
2022-08-05T22:44:06.906Z,75.30
2022-08-05T22:46:33.759Z,74.50
2022-08-05T22:49:12.075Z,73.80
2022-08-05T22:52:04.842Z,72.80
2022-08-05T22:54:33.595Z,72.10
2022-08-05T22:57:00.321Z,71.90
2022-08-05T22:59:45.458Z,71.70
2022-08-05T23:02:16.500Z,71.60
2022-08-05T23:04:43.943Z,71.20
2022-08-05T23:07:18.572Z,71.20
2022-08-05T23:09:53.262Z,71.10
2022-08-05T23:12:28.625Z,70.90
2022-08-05T23:14:55.633Z,70.90
2022-08-05T23:17:34.953Z,70.90
2022-08-05T23:20:17.054Z,70.90
2022-08-05T23:22:48.661Z,70.60
2022-08-05T23:25:52.524Z,71.30
2022-08-05T23:28:07.652Z,70.60
2022-08-05T23:30:40.153Z,70.20
2022-08-05T23:33:22.068Z,69.90
2022-08-05T23:35:55.066Z,69.80
2022-08-05T23:38:23.405Z,69.80
2022-08-05T23:40:52.649Z,69.80
2022-08-05T23:43:25.456Z,69.50
2022-08-05T23:46:20.345Z,69.40
2022-08-05T23:49:00.769Z,69.30
2022-08-05T23:51:54.256Z,69.50
2022-08-05T23:54:34.256Z,69.40
2022-08-05T23:57:06.969Z,69.40
